Time;durP1;ratioP1;P1;durP2;ratioP2;P2;SDS_P1;SDS_P2;PMS_P1;PMS_P2;Temp;Humidity;BMP_temperature;BMP_pressure;BME280_temperature;BME280_humidity;BME280_pressure;Samples;Min_cycle;Max_cycle;Signal;HPM_P1;HPM_P2
2021/12/24 00:00:50;;;;;;;87.57;34.65;;;5.60;99.90;;;;;;5092036;28;20051;-69
2021/12/24 00:03:16;;;;;;;88.68;34.55;;;5.60;99.90;;;;;;5093432;28;20043;-68
2021/12/24 00:05:43;;;;;;;93.10;36.05;;;5.60;99.90;;;;;;5075033;28;20036;-69
2021/12/24 00:08:09;;;;;;;93.63;35.78;;;5.70;99.90;;;;;;5093347;28;20486;-69
2021/12/24 00:10:36;;;;;;;88.07;34.17;;;5.70;99.90;;;;;;5092494;28;20040;-69
2021/12/24 00:13:08;;;;;;;71.18;32.03;;;5.70;99.90;;;;;;5092248;28;20089;-69
2021/12/24 00:15:58;;;;;;;86.75;34.38;;;5.60;99.90;;;;;;5092934;28;20510;-69
2021/12/24 00:37:07;;;;;;;82.60;33.15;;;5.70;99.90;;;;;;5096375;28;20446;-69
2021/12/24 00:39:38;;;;;;;75.88;31.63;;;5.80;99.90;;;;;;5096151;28;20097;-69
2021/12/24 00:42:04;;;;;;;81.95;34.47;;;5.80;99.90;;;;;;5096788;28;20040;-69
2021/12/24 00:44:30;;;;;;;90.80;34.42;;;5.80;99.90;;;;;;5097015;28;20036;-69
2021/12/24 00:46:55;;;;;;;106.20;36.40;;;5.80;99.90;;;;;;5095465;28;20043;-69
2021/12/24 00:49:21;;;;;;;86.57;33.50;;;5.80;99.90;;;;;;5097114;28;20480;-69
2021/12/24 00:52:07;;;;;;;72.72;29.65;;;5.80;99.90;;;;;;5095622;28;20154;-69
2021/12/24 00:57:21;;;;;;;69.35;29.90;;;5.80;99.90;;;;;;5094944;28;20048;-69
2021/12/24 00:59:46;;;;;;;90.38;33.85;;;5.90;99.90;;;;;;5096583;28;20388;-69
2021/12/24 01:02:12;;;;;;;83.22;32.25;;;5.90;99.90;;;;;;5078152;28;20039;-69
2021/12/24 01:04:38;;;;;;;76.28;30.05;;;5.90;99.90;;;;;;5095169;28;20043;-69
2021/12/24 01:07:03;;;;;;;75.00;29.95;;;5.90;99.90;;;;;;5095997;28;20036;-69
2021/12/24 01:09:29;;;;;;;63.67;27.98;;;6.00;99.90;;;;;;5096464;28;20059;-69
2021/12/24 01:11:55;;;;;;;65.15;27.08;;;6.00;99.90;;;;;;5096742;28;20114;-69
2021/12/24 01:14:22;;;;;;;75.03;28.80;;;6.00;99.90;;;;;;5096690;28;20093;-68
2021/12/24 01:17:03;;;;;;;61.50;27.08;;;5.90;99.90;;;;;;5095935;28;20365;-69
2021/12/24 01:19:28;;;;;;;68.55;26.65;;;6.00;99.90;;;;;;5094959;28;20419;-69
2021/12/24 01:24:30;;;;;;;57.33;25.23;;;6.00;99.90;;;;;;5096309;28;20044;-69
2021/12/24 01:40:25;;;;;;;54.97;21.58;;;6.10;99.90;;;;;;5094618;28;20051;-69
2021/12/24 01:42:54;;;;;;;50.30;21.02;;;6.10;99.90;;;;;;5094640;28;20048;-69
2021/12/24 01:45:32;;;;;;;45.63;20.65;;;6.10;99.90;;;;;;5095562;28;20040;-68
2021/12/24 01:48:06;;;;;;;36.22;17.38;;;6.20;99.90;;;;;;5095650;28;20032;-69
2021/12/24 01:50:35;;;;;;;54.30;20.92;;;6.20;99.90;;;;;;5094276;28;20044;-69
2021/12/24 01:53:04;;;;;;;41.80;19.10;;;6.30;99.90;;;;;;5095454;28;20507;-69
2021/12/24 01:55:30;;;;;;;50.03;21.40;;;6.20;99.90;;;;;;5094292;28;20050;-69
2021/12/24 01:57:56;;;;;;;40.20;18.50;;;6.30;99.90;;;;;;5095429;28;20032;-68
2021/12/24 02:00:28;;;;;;;37.42;18.30;;;6.30;99.90;;;;;;5095448;28;20518;-69
2021/12/24 02:02:55;;;;;;;29.58;15.85;;;6.30;99.90;;;;;;5077286;28;20093;-68
2021/12/24 02:05:21;;;;;;;28.27;15.18;;;6.30;99.90;;;;;;5093919;28;20473;-69
2021/12/24 02:07:47;;;;;;;41.17;18.75;;;6.30;99.90;;;;;;5095114;28;20044;-69
2021/12/24 02:10:14;;;;;;;43.97;19.20;;;6.40;99.90;;;;;;5095280;28;20365;-68
2021/12/24 02:12:41;;;;;;;36.22;18.83;;;6.40;99.90;;;;;;5095230;28;20089;-69
2021/12/24 02:15:17;;;;;;;33.70;16.15;;;6.40;99.90;;;;;;5095116;28;20043;-69
2021/12/24 02:18:02;;;;;;;38.72;18.35;;;6.40;99.90;;;;;;5094637;28;20086;-68
2021/12/24 02:28:42;;;;;;;26.25;14.20;;;6.50;99.90;;;;;;5093479;28;20048;-69
2021/12/24 02:31:17;;;;;;;34.50;16.00;;;6.50;99.90;;;;;;5093561;28;20123;-68
2021/12/24 02:33:43;;;;;;;30.63;14.65;;;6.50;99.90;;;;;;5093379;28;20040;-69
2021/12/24 02:36:09;;;;;;;31.65;15.63;;;6.60;99.90;;;;;;5094199;28;20526;-69
2021/12/24 02:38:35;;;;;;;36.13;15.43;;;6.60;99.90;;;;;;5094306;28;20046;-68
2021/12/24 02:41:02;;;;;;;33.08;15.52;;;6.70;99.90;;;;;;5093874;28;20466;-69
2021/12/24 02:43:28;;;;;;;39.88;16.67;;;6.70;99.90;;;;;;5093268;28;20407;-69
2021/12/24 02:45:57;;;;;;;29.88;13.30;;;6.70;99.90;;;;;;5094244;28;20032;-68
2021/12/24 02:56:25;;;;;;;32.50;15.25;;;6.90;99.90;;;;;;5094030;28;20040;-69
2021/12/24 02:58:50;;;;;;;33.67;15.60;;;6.80;99.90;;;;;;5095081;28;20032;-68
2021/12/24 03:01:21;;;;;;;31.08;14.68;;;6.90;99.90;;;;;;5094116;28;20568;-69
2021/12/24 03:03:48;;;;;;;36.65;16.13;;;6.90;99.90;;;;;;5094392;28;20040;-69
2021/12/24 03:06:15;;;;;;;38.03;16.05;;;7.00;99.90;;;;;;5092488;28;20055;-68
2021/12/24 03:08:41;;;;;;;34.22;15.30;;;6.90;99.90;;;;;;5093930;28;20480;-68
2021/12/24 03:11:06;;;;;;;45.92;16.58;;;7.00;99.90;;;;;;5092703;28;20043;-69
2021/12/24 03:13:33;;;;;;;39.33;15.82;;;7.00;99.90;;;;;;5092945;28;20128;-69
2021/12/24 03:16:00;;;;;;;40.70;16.50;;;7.00;99.90;;;;;;5093748;28;20065;-68
2021/12/24 03:18:28;;;;;;;37.33;14.88;;;7.00;99.90;;;;;;5092445;28;20048;-68
2021/12/24 03:21:04;;;;;;;37.20;15.40;;;7.00;99.90;;;;;;5093999;28;20043;-68
2021/12/24 03:23:36;;;;;;;31.73;15.35;;;7.00;99.90;;;;;;5092850;28;20040;-68
2021/12/24 03:26:04;;;;;;;38.58;15.88;;;7.10;99.90;;;;;;5093678;28;20115;-68
2021/12/24 03:28:29;;;;;;;42.88;16.08;;;7.10;99.90;;;;;;5093548;28;20028;-69
2021/12/24 03:30:55;;;;;;;34.72;14.35;;;7.10;99.90;;;;;;5094144;28;20058;-68
2021/12/24 03:33:20;;;;;;;33.38;14.77;;;7.10;99.90;;;;;;5093822;28;20054;-68
2021/12/24 03:35:46;;;;;;;43.53;16.40;;;7.20;99.90;;;;;;5092337;28;20502;-68
2021/12/24 03:38:12;;;;;;;41.92;16.50;;;7.20;99.90;;;;;;5092717;28;20036;-69
2021/12/24 03:40:37;;;;;;;45.38;16.02;;;7.20;99.90;;;;;;5093582;28;20514;-68
2021/12/24 03:43:03;;;;;;;50.45;18.23;;;7.30;99.90;;;;;;5093839;28;20541;-68
2021/12/24 03:46:17;;;;;;;45.47;17.20;;;7.30;99.90;;;;;;5093328;28;20040;-69
2021/12/24 03:48:23;;;;;;;55.03;19.00;;;7.30;99.90;;;;;;5089186;28;20105;-68
2021/12/24 03:51:07;;;;;;;56.90;20.52;;;7.30;99.90;;;;;;5093509;28;20040;-69
2021/12/24 03:56:16;;;;;;;61.35;20.67;;;7.30;99.90;;;;;;5093301;28;19916;-69
2021/12/24 03:58:43;;;;;;;68.88;23.38;;;7.40;99.90;;;;;;5091662;28;20040;-68
2021/12/24 04:01:10;;;;;;;80.38;24.00;;;7.50;99.90;;;;;;5093248;28;20511;-69
2021/12/24 04:03:35;;;;;;;85.75;25.60;;;7.50;99.90;;;;;;5093300;28;20040;-69
2021/12/24 04:06:01;;;;;;;84.50;26.42;;;7.60;99.90;;;;;;5093405;28;20115;-69
2021/12/24 04:08:27;;;;;;;94.32;26.75;;;7.60;99.90;;;;;;5093180;28;20054;-68
2021/12/24 04:10:52;;;;;;;79.70;26.50;;;7.70;99.90;;;;;;5093358;28;20594;-69
2021/12/24 04:13:18;;;;;;;97.43;27.02;;;7.70;99.90;;;;;;5093465;28;20055;-69
2021/12/24 04:15:44;;;;;;;87.18;28.02;;;7.70;99.90;;;;;;5091931;28;20048;-69
2021/12/24 04:18:21;;;;;;;94.70;29.17;;;7.80;99.90;;;;;;5093159;28;20047;-68
2021/12/24 04:26:15;;;;;;;106.43;32.45;;;8.00;99.90;;;;;;5092823;28;20044;-69
2021/12/24 04:28:41;;;;;;;116.20;32.65;;;8.10;99.90;;;;;;5092982;28;20128;-69
2021/12/24 04:31:07;;;;;;;127.00;35.95;;;8.10;99.90;;;;;;5093666;28;20039;-69
2021/12/24 04:33:37;;;;;;;107.78;29.40;;;8.10;99.90;;;;;;5091707;28;20074;-69
2021/12/24 04:38:56;;;;;;;107.10;29.52;;;8.20;99.90;;;;;;5091765;28;20055;-69
2021/12/24 05:03:11;;;;;;;94.88;32.17;;;8.40;99.90;;;;;;5092827;28;20119;-69
2021/12/24 05:05:50;;;;;;;88.60;32.28;;;8.40;99.90;;;;;;5092442;28;20040;-69
2021/12/24 05:08:22;;;;;;;86.20;33.88;;;8.50;99.90;;;;;;5092821;28;20115;-69
2021/12/24 05:10:49;;;;;;;99.13;34.28;;;8.50;99.90;;;;;;5095136;28;20036;-68
2021/12/24 05:13:17;;;;;;;86.72;32.65;;;8.50;99.90;;;;;;5095010;28;20071;-69
2021/12/24 05:15:47;;;;;;;96.43;34.25;;;8.60;99.90;;;;;;5095881;28;20043;-69
2021/12/24 05:23:42;;;;;;;92.32;32.47;;;8.70;99.90;;;;;;5096001;28;20048;-68
2021/12/24 05:26:08;;;;;;;94.82;34.50;;;8.70;99.90;;;;;;5095902;28;20403;-69
2021/12/24 05:28:34;;;;;;;86.05;32.65;;;8.70;99.90;;;;;;5096476;28;20032;-69
2021/12/24 05:30:59;;;;;;;86.65;32.22;;;8.70;99.90;;;;;;5096110;28;20510;-69
2021/12/24 05:33:25;;;;;;;92.68;32.58;;;8.60;99.90;;;;;;5095910;28;20040;-69
2021/12/24 05:35:51;;;;;;;69.72;30.08;;;8.70;99.90;;;;;;5095547;28;20038;-68
2021/12/24 05:38:16;;;;;;;82.03;31.85;;;8.60;99.90;;;;;;5095681;28;20071;-68
2021/12/24 05:40:43;;;;;;;82.60;33.55;;;8.60;99.90;;;;;;5095653;28;20036;-68
2021/12/24 05:43:09;;;;;;;80.47;31.95;;;8.60;99.90;;;;;;5095642;28;20040;-68
2021/12/24 05:45:35;;;;;;;88.82;34.63;;;8.70;99.90;;;;;;5095627;28;20050;-69
2021/12/24 05:48:01;;;;;;;85.60;33.97;;;8.60;99.90;;;;;;5094205;28;20039;-69
2021/12/24 05:50:27;;;;;;;95.88;36.40;;;8.60;99.90;;;;;;5095839;28;20036;-69
2021/12/24 05:52:52;;;;;;;76.53;32.13;;;8.60;99.90;;;;;;5095664;28;20123;-68
2021/12/24 05:55:18;;;;;;;97.53;36.13;;;8.60;99.90;;;;;;5095691;28;20476;-69
2021/12/24 05:57:44;;;;;;;90.35;35.88;;;8.70;99.90;;;;;;5095334;28;20040;-69
2021/12/24 06:00:11;;;;;;;81.40;33.42;;;8.60;99.90;;;;;;5095866;28;20070;-69
2021/12/24 06:02:36;;;;;;;78.72;32.47;;;8.60;99.90;;;;;;5095242;28;20403;-68
2021/12/24 06:05:02;;;;;;;95.18;35.03;;;8.70;99.90;;;;;;5095103;28;20040;-69
2021/12/24 06:07:28;;;;;;;80.30;32.22;;;8.60;99.90;;;;;;5095117;28;20117;-69
2021/12/24 06:09:54;;;;;;;85.03;34.88;;;8.70;99.90;;;;;;5094297;28;20086;-69
2021/12/24 06:12:19;;;;;;;83.85;32.30;;;8.70;99.90;;;;;;5094163;28;20044;-69
2021/12/24 06:14:52;;;;;;;79.57;32.67;;;8.70;99.90;;;;;;5095103;28;20036;-69
2021/12/24 06:17:18;;;;;;;76.25;31.52;;;8.60;99.90;;;;;;5094598;28;20039;-67
2021/12/24 06:19:44;;;;;;;78.13;30.10;;;8.60;99.90;;;;;;5093804;28;20044;-68
2021/12/24 06:22:10;;;;;;;77.07;31.00;;;8.60;99.90;;;;;;5093398;28;20399;-68
2021/12/24 06:24:36;;;;;;;71.93;30.27;;;8.60;99.90;;;;;;5094895;28;20036;-68
2021/12/24 06:27:03;;;;;;;71.05;28.10;;;8.60;99.90;;;;;;5094414;28;20035;-68
2021/12/24 06:29:29;;;;;;;78.13;29.17;;;8.70;99.90;;;;;;5095133;28;20042;-67
2021/12/24 06:31:55;;;;;;;56.10;24.35;;;8.60;99.90;;;;;;5094695;28;20077;-67
2021/12/24 06:34:21;;;;;;;73.30;26.85;;;8.60;99.90;;;;;;5094671;28;20048;-68
2021/12/24 06:36:48;;;;;;;67.85;26.85;;;8.60;99.90;;;;;;5094302;28;20044;-68
2021/12/24 06:39:15;;;;;;;57.95;23.52;;;8.60;99.90;;;;;;5094910;28;20040;-68
2021/12/24 06:41:41;;;;;;;63.40;23.67;;;8.70;99.90;;;;;;5094624;28;20036;-68
2021/12/24 06:44:10;;;;;;;71.90;25.02;;;8.70;99.90;;;;;;5094635;28;20044;-68
2021/12/24 06:46:40;;;;;;;59.88;23.73;;;8.70;99.90;;;;;;5094238;28;20036;-68
2021/12/24 06:49:07;;;;;;;50.45;22.67;;;8.70;99.90;;;;;;5094891;28;20418;-68
2021/12/24 06:51:32;;;;;;;63.85;24.52;;;8.70;99.90;;;;;;5094422;28;20111;-68
2021/12/24 06:53:58;;;;;;;46.30;18.63;;;8.70;99.90;;;;;;5094448;28;20120;-68
2021/12/24 06:56:24;;;;;;;52.20;19.73;;;8.70;99.90;;;;;;5094192;28;20523;-68
2021/12/24 06:58:49;;;;;;;49.28;18.35;;;8.70;99.90;;;;;;5093216;28;20036;-68
2021/12/24 07:01:16;;;;;;;47.38;18.08;;;8.70;99.90;;;;;;5094003;28;20097;-68
2021/12/24 07:03:42;;;;;;;42.55;18.17;;;8.80;99.90;;;;;;5094738;28;20051;-68
2021/12/24 07:06:08;;;;;;;43.45;17.60;;;8.70;99.90;;;;;;5093694;28;20466;-68
2021/12/24 07:08:34;;;;;;;43.58;17.25;;;8.70;99.90;;;;;;5093885;28;20044;-68
2021/12/24 07:10:59;;;;;;;38.08;16.77;;;8.70;99.90;;;;;;5093956;28;20036;-68
2021/12/24 07:13:27;;;;;;;45.90;17.75;;;8.70;99.90;;;;;;5094032;28;20070;-68
2021/12/24 07:15:52;;;;;;;32.78;15.73;;;8.70;99.90;;;;;;5092580;28;20040;-68
2021/12/24 07:18:18;;;;;;;40.50;18.35;;;8.70;99.90;;;;;;5092729;28;20040;-68
2021/12/24 07:20:44;;;;;;;42.15;17.23;;;8.70;99.90;;;;;;5093951;28;20043;-68
2021/12/24 07:23:09;;;;;;;48.35;20.15;;;8.70;99.90;;;;;;5092631;28;20044;-68
2021/12/24 07:25:35;;;;;;;40.15;17.75;;;8.60;99.90;;;;;;5092305;28;20066;-68
2021/12/24 07:28:01;;;;;;;42.97;17.10;;;8.60;99.90;;;;;;5093797;28;20047;-68
2021/12/24 07:30:27;;;;;;;43.08;16.73;;;8.60;99.90;;;;;;5093974;28;20032;-68
2021/12/24 07:32:53;;;;;;;38.15;16.00;;;8.70;99.90;;;;;;5093421;28;20050;-68
2021/12/24 07:35:19;;;;;;;40.78;16.67;;;8.60;99.90;;;;;;5093832;28;20044;-68
2021/12/24 07:37:45;;;;;;;37.47;15.00;;;8.50;99.90;;;;;;5093275;28;20075;-68
2021/12/24 07:40:16;;;;;;;45.13;14.70;;;8.60;99.90;;;;;;5092685;28;20118;-68
2021/12/24 07:42:44;;;;;;;34.22;13.65;;;8.60;99.90;;;;;;5093671;28;20553;-68
2021/12/24 07:45:10;;;;;;;27.45;13.43;;;8.50;99.90;;;;;;5093798;28;20052;-68
2021/12/24 07:47:42;;;;;;;31.30;13.45;;;8.50;99.90;;;;;;5092184;28;20078;-68
2021/12/24 07:51:57;;;;;;;24.67;12.02;;;8.60;99.90;;;;;;5098775;28;20046;-68
2021/12/24 07:53:05;;;;;;;21.70;11.07;;;8.50;99.90;;;;;;5112530;28;20372;-69
2021/12/24 07:55:31;;;;;;;21.67;10.73;;;8.50;99.90;;;;;;5112651;28;20118;-68
2021/12/24 07:57:56;;;;;;;25.23;10.77;;;8.60;99.90;;;;;;5112884;28;20567;-68
2021/12/24 08:00:25;;;;;;;21.17;10.20;;;8.50;99.90;;;;;;5112818;28;20115;-68
2021/12/24 08:02:51;;;;;;;23.73;11.15;;;8.50;99.90;;;;;;5114213;28;20050;-68
2021/12/24 08:05:19;;;;;;;24.38;11.48;;;8.50;99.90;;;;;;5113954;28;20410;-68
2021/12/24 08:07:45;;;;;;;22.70;10.98;;;8.50;99.90;;;;;;5113391;28;20596;-68
2021/12/24 08:10:11;;;;;;;25.45;11.93;;;8.50;99.90;;;;;;5113541;28;20118;-68
2021/12/24 08:12:36;;;;;;;25.90;11.50;;;8.50;99.90;;;;;;5113602;28;20074;-68
2021/12/24 08:15:04;;;;;;;31.02;11.63;;;8.50;99.90;;;;;;5113670;28;20036;-68
2021/12/24 08:17:30;;;;;;;23.98;12.85;;;8.50;99.90;;;;;;5111935;28;20112;-68
2021/12/24 08:19:56;;;;;;;24.42;10.77;;;8.50;99.90;;;;;;5112778;28;20036;-68
2021/12/24 08:22:21;;;;;;;23.63;10.57;;;8.50;99.90;;;;;;5113856;28;20032;-68
2021/12/24 08:24:47;;;;;;;21.92;11.20;;;8.50;99.90;;;;;;5112753;28;20043;-68
2021/12/24 08:27:13;;;;;;;27.08;11.13;;;8.50;99.90;;;;;;5113783;28;20047;-68
2021/12/24 08:29:39;;;;;;;30.30;11.90;;;8.50;99.90;;;;;;5113363;28;20492;-68
2021/12/24 08:32:05;;;;;;;23.73;11.63;;;8.50;99.90;;;;;;5112638;28;20036;-68
2021/12/24 08:34:32;;;;;;;28.52;11.73;;;8.50;99.90;;;;;;5112077;28;20096;-68
2021/12/24 08:36:58;;;;;;;33.50;12.07;;;8.50;99.90;;;;;;5106582;28;20061;-68
2021/12/24 08:39:24;;;;;;;23.65;11.15;;;8.50;99.90;;;;;;5104182;28;20024;-68
2021/12/24 08:41:54;;;;;;;30.85;11.95;;;8.50;99.90;;;;;;5101458;28;20475;-68
2021/12/24 08:44:23;;;;;;;25.77;12.77;;;8.50;99.90;;;;;;5096415;28;20492;-68
2021/12/24 08:46:49;;;;;;;21.75;11.18;;;8.50;99.90;;;;;;5094985;28;20043;-68
2021/12/24 08:49:15;;;;;;;24.50;11.10;;;8.50;99.90;;;;;;5096706;28;20077;-68
2021/12/24 08:51:41;;;;;;;30.25;11.73;;;8.50;99.90;;;;;;5096577;28;20150;-68
2021/12/24 08:54:06;;;;;;;29.40;11.20;;;8.50;99.90;;;;;;5095406;28;20075;-69
2021/12/24 08:56:32;;;;;;;28.95;12.40;;;8.50;99.90;;;;;;5096276;28;20075;-69
2021/12/24 08:58:58;;;;;;;31.67;11.82;;;8.50;99.90;;;;;;5096519;28;20388;-69
2021/12/24 09:01:24;;;;;;;22.67;11.38;;;8.50;99.90;;;;;;5096608;28;20036;-68
2021/12/24 09:03:49;;;;;;;28.80;12.00;;;8.50;99.90;;;;;;5096302;28;20043;-69
2021/12/24 09:06:15;;;;;;;28.70;11.57;;;8.50;99.90;;;;;;5096431;28;20036;-71
2021/12/24 09:08:43;;;;;;;29.85;12.10;;;8.50;99.90;;;;;;5097004;28;20052;-69
2021/12/24 09:11:09;;;;;;;27.02;12.07;;;8.50;99.90;;;;;;5096745;28;20040;-69
2021/12/24 09:13:35;;;;;;;34.08;11.48;;;8.40;99.90;;;;;;5096253;28;20047;-69
2021/12/24 09:16:01;;;;;;;39.03;12.63;;;8.50;99.90;;;;;;5095794;28;20479;-69
2021/12/24 09:18:26;;;;;;;32.13;12.45;;;8.50;99.90;;;;;;5095443;28;20036;-69
2021/12/24 09:20:54;;;;;;;30.33;12.52;;;8.50;99.90;;;;;;5096200;28;20032;-69
2021/12/24 09:23:20;;;;;;;32.63;13.00;;;8.40;99.90;;;;;;5094752;28;20036;-69
2021/12/24 09:25:46;;;;;;;28.98;13.25;;;8.50;99.90;;;;;;5095714;28;20093;-69
2021/12/24 09:28:11;;;;;;;30.05;12.60;;;8.40;99.90;;;;;;5096162;28;20399;-69
2021/12/24 09:30:37;;;;;;;27.58;12.00;;;8.40;99.90;;;;;;5096344;28;20373;-69
2021/12/24 09:33:04;;;;;;;27.77;11.35;;;8.40;99.90;;;;;;5094692;28;20127;-69
2021/12/24 09:35:30;;;;;;;28.02;11.85;;;8.40;99.90;;;;;;5096628;28;20043;-69
2021/12/24 09:37:58;;;;;;;31.98;10.57;;;8.50;99.90;;;;;;5095620;28;20036;-69
2021/12/24 09:40:24;;;;;;;30.52;13.00;;;8.30;99.90;;;;;;5096161;28;20032;-69
2021/12/24 09:42:50;;;;;;;28.13;11.00;;;8.30;99.90;;;;;;5095870;28;20090;-69
2021/12/24 09:45:17;;;;;;;10.57;6.45;;;8.30;99.90;;;;;;5096045;28;20040;-69
2021/12/24 09:47:43;;;;;;;6.22;4.20;;;8.10;99.90;;;;;;5094368;28;20043;-69
2021/12/24 09:50:21;;;;;;;5.32;4.30;;;7.40;99.90;;;;;;5095548;28;20495;-69
2021/12/24 09:52:49;;;;;;;7.25;4.07;;;7.20;99.90;;;;;;5095723;28;20047;-69
2021/12/24 09:55:21;;;;;;;6.97;4.82;;;7.10;99.90;;;;;;5076996;28;20044;-69
2021/12/24 09:57:47;;;;;;;7.75;4.50;;;6.80;99.90;;;;;;5095152;28;20139;-69
2021/12/24 10:00:17;;;;;;;5.72;4.35;;;6.80;99.90;;;;;;5101005;28;20475;-69
2021/12/24 10:02:45;;;;;;;7.18;4.55;;;6.80;99.90;;;;;;5106189;28;20045;-69
2021/12/24 10:05:28;;;;;;;6.90;4.68;;;6.60;99.90;;;;;;5094095;28;20050;-69
2021/12/24 10:08:06;;;;;;;7.55;4.75;;;6.60;99.90;;;;;;5095297;28;20125;-69
2021/12/24 10:10:32;;;;;;;6.72;5.40;;;6.60;99.90;;;;;;5095650;28;20051;-68
2021/12/24 10:13:24;;;;;;;6.68;5.00;;;6.60;99.90;;;;;;5095586;28;20115;-68
2021/12/24 10:15:55;;;;;;;8.00;5.72;;;6.50;99.90;;;;;;5094854;28;20058;-68
2021/12/24 10:18:30;;;;;;;8.95;5.72;;;6.50;99.90;;;;;;5076853;28;20043;-69
2021/12/24 10:21:02;;;;;;;6.95;5.18;;;6.40;99.90;;;;;;5093981;28;20373;-69
2021/12/24 10:23:57;;;;;;;9.32;5.50;;;6.40;99.90;;;;;;5094917;28;20052;-68
2021/12/24 10:26:48;;;;;;;8.15;5.57;;;6.40;99.90;;;;;;5085422;28;20101;-69
2021/12/24 10:29:27;;;;;;;8.32;5.38;;;6.30;99.90;;;;;;5089737;28;20044;-69
2021/12/24 10:31:56;;;;;;;8.48;5.20;;;6.30;99.90;;;;;;5094911;28;20040;-69
2021/12/24 10:34:32;;;;;;;8.93;5.85;;;6.30;99.90;;;;;;5094734;28;20541;-68
2021/12/24 10:37:09;;;;;;;9.43;4.75;;;6.30;99.90;;;;;;5094345;28;20482;-68
2021/12/24 10:39:40;;;;;;;7.78;5.40;;;6.30;99.90;;;;;;5094703;28;20377;-68
2021/12/24 10:42:19;;;;;;;7.32;5.18;;;6.20;99.90;;;;;;5094520;28;20114;-68
2021/12/24 10:44:46;;;;;;;7.50;5.47;;;6.20;99.90;;;;;;5097029;28;20040;-69
2021/12/24 10:47:26;;;;;;;8.27;5.18;;;6.20;99.90;;;;;;5096714;28;20054;-68
2021/12/24 10:54:58;;;;;;;5.57;4.32;;;6.20;99.90;;;;;;5113478;28;20043;-72
2021/12/24 10:57:27;;;;;;;5.38;3.83;;;6.20;99.90;;;;;;5112404;28;20077;-72
2021/12/24 10:59:56;;;;;;;4.45;3.53;;;6.20;99.90;;;;;;5112595;28;20043;-72
2021/12/24 11:02:28;;;;;;;4.35;3.22;;;6.10;99.90;;;;;;5112762;28;20449;-72
2021/12/24 11:04:54;;;;;;;7.15;4.18;;;6.00;99.90;;;;;;5112763;28;20471;-72
2021/12/24 11:07:38;;;;;;;6.07;4.03;;;6.00;99.90;;;;;;5112760;28;20106;-72
2021/12/24 11:10:29;;;;;;;6.70;4.35;;;5.90;99.90;;;;;;5114663;28;20467;-72
2021/12/24 11:13:10;;;;;;;6.03;4.38;;;5.90;99.90;;;;;;5113633;28;20070;-72
2021/12/24 11:15:40;;;;;;;8.57;5.18;;;6.00;99.90;;;;;;5114304;28;20046;-72
2021/12/24 11:18:13;;;;;;;6.80;4.65;;;5.90;99.90;;;;;;5096138;28;20054;-72
2021/12/24 11:20:38;;;;;;;5.88;4.43;;;5.80;99.90;;;;;;5113657;28;20056;-72
2021/12/24 11:23:04;;;;;;;5.68;4.47;;;5.80;99.90;;;;;;5113289;28;20387;-72
2021/12/24 11:25:37;;;;;;;6.30;4.63;;;5.90;99.90;;;;;;5113873;28;20515;-72
2021/12/24 11:28:04;;;;;;;6.43;4.75;;;5.80;99.90;;;;;;5114065;28;20040;-72
2021/12/24 11:30:31;;;;;;;8.88;5.20;;;5.80;99.90;;;;;;5114041;28;20085;-72
2021/12/24 11:32:57;;;;;;;6.72;4.72;;;5.80;99.90;;;;;;5114541;28;20071;-72
2021/12/24 11:35:24;;;;;;;8.73;5.20;;;5.80;99.90;;;;;;5114207;28;20078;-72
2021/12/24 11:37:51;;;;;;;8.13;5.00;;;5.80;99.90;;;;;;5113583;28;20522;-72
2021/12/24 11:40:20;;;;;;;5.90;4.15;;;5.90;99.90;;;;;;5113828;28;20088;-73
2021/12/24 11:42:57;;;;;;;8.93;5.85;;;6.00;99.90;;;;;;5113774;28;20106;-72
2021/12/24 11:45:25;;;;;;;9.02;6.47;;;6.10;99.90;;;;;;5113909;28;20044;-72
2021/12/24 11:47:52;;;;;;;7.05;5.18;;;6.20;99.90;;;;;;5113301;28;20115;-73
2021/12/24 11:50:18;;;;;;;9.18;5.97;;;6.20;99.90;;;;;;5113839;28;20036;-73
2021/12/24 11:52:47;;;;;;;7.78;5.20;;;6.20;99.90;;;;;;5094092;28;20036;-73
2021/12/24 11:55:13;;;;;;;6.00;4.60;;;6.20;99.90;;;;;;5112548;28;20055;-73
2021/12/24 11:57:50;;;;;;;7.22;4.80;;;6.20;99.90;;;;;;5113234;28;20407;-73
2021/12/24 12:00:22;;;;;;;7.18;5.60;;;6.30;99.90;;;;;;5114094;28;20032;-73
2021/12/24 12:02:50;;;;;;;8.13;5.28;;;6.40;99.90;;;;;;5113225;28;20048;-73
2021/12/24 12:05:22;;;;;;;7.20;5.53;;;6.50;99.90;;;;;;5110925;28;20056;-72
2021/12/24 12:07:49;;;;;;;8.00;5.38;;;6.30;99.90;;;;;;5110328;28;20046;-73
2021/12/24 12:10:48;;;;;;;5.85;4.32;;;6.40;99.90;;;;;;5113679;28;20035;-73
2021/12/24 12:13:54;;;;;;;5.93;4.13;;;6.30;99.90;;;;;;5113619;28;20085;-73
2021/12/24 12:16:21;;;;;;;7.82;5.30;;;6.40;99.90;;;;;;5054241;28;20052;-72
2021/12/24 12:19:03;;;;;;;8.27;4.50;;;6.40;99.90;;;;;;5071870;28;20400;-72
2021/12/24 12:21:41;;;;;;;6.32;3.90;;;6.20;99.90;;;;;;5100695;28;20058;-72
2021/12/24 12:26:43;;;;;;;5.93;4.18;;;6.30;99.90;;;;;;5103632;28;20373;-72
2021/12/24 12:29:26;;;;;;;5.85;4.28;;;6.40;99.90;;;;;;5109394;28;20043;-72
2021/12/24 12:32:04;;;;;;;;;;;6.50;99.90;;;;;;5106895;28;20109;-72
2021/12/24 12:34:38;;;;;;;6.53;4.03;;;6.50;99.90;;;;;;5106322;28;20042;-72
2021/12/24 12:37:27;;;;;;;5.07;4.05;;;6.50;99.90;;;;;;5115152;28;20688;-72
2021/12/24 12:40:05;;;;;;;5.32;4.40;;;6.50;99.90;;;;;;5099148;28;20385;-72
2021/12/24 12:42:53;;;;;;;5.93;4.15;;;6.60;99.90;;;;;;5111908;28;20039;-72
2021/12/24 12:45:42;;;;;;;7.18;4.40;;;6.60;99.90;;;;;;5117237;27;20473;-72
2021/12/24 12:48:10;;;;;;;5.95;4.78;;;6.60;99.90;;;;;;5110023;28;20047;-72
2021/12/24 12:50:40;;;;;;;7.90;5.13;;;6.50;99.90;;;;;;5116083;28;20055;-72
2021/12/24 12:53:28;;;;;;;6.72;4.47;;;6.50;99.90;;;;;;5117206;28;20435;-72
2021/12/24 12:56:20;;;;;;;5.85;4.40;;;6.50;99.90;;;;;;5115813;28;20081;-72
2021/12/24 12:58:58;;;;;;;6.63;4.90;;;6.50;99.90;;;;;;5113207;28;20467;-72
2021/12/24 13:01:24;;;;;;;6.95;4.97;;;6.60;99.90;;;;;;5117359;28;20040;-71
2021/12/24 13:03:55;;;;;;;5.65;4.57;;;6.70;99.90;;;;;;5115625;28;20456;-71
2021/12/24 13:06:41;;;;;;;7.32;5.32;;;6.70;99.90;;;;;;5115626;28;20502;-71
2021/12/24 13:09:10;;;;;;;7.07;5.10;;;6.70;99.90;;;;;;5115743;28;20043;-71
2021/12/24 13:11:46;;;;;;;7.82;4.70;;;6.70;99.90;;;;;;5117162;28;20032;-71
2021/12/24 13:14:14;;;;;;;6.13;4.47;;;6.70;99.90;;;;;;5114684;28;20491;-72
2021/12/24 13:16:54;;;;;;;6.53;5.05;;;6.70;99.90;;;;;;5103753;28;20441;-71
2021/12/24 13:19:28;;;;;;;7.68;5.38;;;6.60;99.90;;;;;;5078023;28;20055;-72
2021/12/24 13:25:00;;;;;;;6.32;4.18;;;6.60;99.90;;;;;;5095053;28;20080;-73
2021/12/24 13:27:33;;;;;;;7.10;5.10;;;6.60;99.90;;;;;;5096078;28;20043;-73
2021/12/24 13:30:21;;;;;;;6.45;4.90;;;6.60;99.90;;;;;;5095549;28;20123;-72
2021/12/24 13:32:51;;;;;;;5.85;4.30;;;6.60;99.90;;;;;;5097310;28;20081;-73
2021/12/24 13:35:19;;;;;;;6.45;4.50;;;6.60;99.90;;;;;;5095219;28;20051;-72
2021/12/24 13:37:46;;;;;;;6.10;4.65;;;6.60;99.90;;;;;;5095214;28;20482;-72
2021/12/24 13:40:18;;;;;;;8.10;4.47;;;6.60;99.90;;;;;;5096950;28;20040;-72
2021/12/24 13:42:49;;;;;;;6.03;4.97;;;6.60;99.90;;;;;;5097787;28;20043;-72
2021/12/24 13:45:15;;;;;;;6.38;4.40;;;6.60;99.90;;;;;;5095977;28;20067;-72
2021/12/24 13:48:06;;;;;;;7.97;4.95;;;6.60;99.90;;;;;;5095526;28;20050;-72
2021/12/24 13:56:17;;;;;;;6.20;4.15;;;6.60;99.90;;;;;;5095190;28;20048;-72
2021/12/24 13:58:54;;;;;;;6.88;5.22;;;6.50;99.90;;;;;;5095683;28;20430;-72
2021/12/24 14:01:25;;;;;;;6.72;5.15;;;6.60;99.90;;;;;;5095945;28;20047;-72
2021/12/24 14:03:50;;;;;;;6.28;5.10;;;6.60;99.90;;;;;;5093995;28;20058;-72
2021/12/24 14:06:16;;;;;;;7.65;5.60;;;6.50;99.90;;;;;;5095095;28;20492;-72
2021/12/24 14:08:42;;;;;;;8.05;6.22;;;6.50;99.90;;;;;;5095554;28;20040;-72
2021/12/24 14:11:15;;;;;;;8.10;5.63;;;6.50;99.90;;;;;;5095434;28;20500;-72
2021/12/24 14:13:51;;;;;;;10.73;8.00;;;6.50;99.90;;;;;;5095543;28;20040;-71
2021/12/24 14:18:55;;;;;;;9.95;7.03;;;6.50;99.90;;;;;;5094973;28;20553;-72
2021/12/24 14:24:04;;;;;;;8.15;5.95;;;6.40;99.90;;;;;;5093748;28;20093;-71
2021/12/24 14:26:34;;;;;;;10.27;6.70;;;6.40;99.90;;;;;;5093636;28;20092;-71
2021/12/24 14:29:05;;;;;;;7.28;5.43;;;6.40;99.90;;;;;;5093479;28;20040;-71
2021/12/24 14:31:46;;;;;;;9.27;6.43;;;6.40;99.90;;;;;;5102250;28;20041;-70
2021/12/24 14:34:12;;;;;;;7.65;5.55;;;6.40;99.90;;;;;;5104003;28;20039;-71
2021/12/24 14:36:37;;;;;;;8.63;5.70;;;6.40;99.90;;;;;;5103029;28;20487;-71
2021/12/24 14:39:16;;;;;;;9.00;6.85;;;6.40;99.90;;;;;;5113800;28;20073;-71
2021/12/24 14:41:42;;;;;;;8.75;6.07;;;6.40;99.90;;;;;;5114936;28;20043;-71
2021/12/24 14:44:27;;;;;;;8.48;5.78;;;6.30;99.90;;;;;;5112473;28;20036;-71
2021/12/24 14:46:57;;;;;;;9.65;6.07;;;6.40;99.90;;;;;;5098395;28;20059;-71
2021/12/24 14:49:31;;;;;;;10.52;5.85;;;6.30;99.90;;;;;;5093903;28;20443;-71